createdAt,value
2022-08-23T00:00:13.851Z,5.90
2022-08-23T00:01:13.510Z,5.60
2022-08-23T00:02:22.766Z,6.40
2022-08-23T00:03:14.529Z,4.80
2022-08-23T00:04:13.480Z,5.30
2022-08-23T00:05:13.454Z,5.30
2022-08-23T00:06:13.427Z,4.40
2022-08-23T00:07:13.433Z,5.20
2022-08-23T00:08:13.409Z,6.30
2022-08-23T00:09:13.413Z,4.50
2022-08-23T00:10:13.377Z,6.00
2022-08-23T00:11:13.360Z,7.00
2022-08-23T00:12:13.345Z,4.60
2022-08-23T00:13:13.326Z,5.00
2022-08-23T00:14:13.333Z,3.90
2022-08-23T00:15:13.306Z,5.40
2022-08-23T00:16:13.296Z,5.20
2022-08-23T00:17:13.275Z,4.20
2022-08-23T00:18:14.278Z,5.90
2022-08-23T00:19:13.265Z,6.00
2022-08-23T00:20:13.260Z,5.90
2022-08-23T00:21:13.227Z,5.00
2022-08-23T00:22:13.214Z,4.60
2022-08-23T00:23:13.202Z,5.10
2022-08-23T00:24:13.195Z,5.50
2022-08-23T00:25:13.191Z,5.60
2022-08-23T00:26:13.164Z,4.30
2022-08-23T00:27:13.137Z,4.90
2022-08-23T00:28:14.965Z,5.70
2022-08-23T00:29:13.124Z,5.80
2022-08-23T00:30:13.128Z,6.00
2022-08-23T00:31:13.088Z,5.00
2022-08-23T00:32:13.088Z,7.00
2022-08-23T00:33:13.065Z,5.60
2022-08-23T00:34:13.058Z,4.80
2022-08-23T00:35:13.048Z,4.90
2022-08-23T00:36:14.059Z,7.80
2022-08-23T00:37:13.014Z,5.10
2022-08-23T00:38:34.157Z,4.80
2022-08-23T00:39:13.999Z,5.50
2022-08-23T00:40:13.073Z,5.60
2022-08-23T00:41:12.969Z,5.30
2022-08-23T00:42:12.944Z,6.30
2022-08-23T00:43:12.934Z,5.80
2022-08-23T00:44:12.936Z,5.30
2022-08-23T00:45:12.941Z,6.40
2022-08-23T00:46:12.926Z,6.20
2022-08-23T00:47:12.901Z,4.50
2022-08-23T00:48:12.885Z,5.60
2022-08-23T00:49:12.878Z,4.90
2022-08-23T00:50:23.521Z,6.30
2022-08-23T00:51:13.822Z,6.60
2022-08-23T00:52:12.815Z,6.30
2022-08-23T00:53:12.796Z,4.90
2022-08-23T00:54:12.793Z,5.00
2022-08-23T00:55:12.779Z,7.10
2022-08-23T00:56:12.756Z,6.70
2022-08-23T00:57:12.745Z,5.60
2022-08-23T00:58:12.741Z,7.30
2022-08-23T00:59:12.727Z,7.50
2022-08-23T01:00:12.728Z,7.10
2022-08-23T01:01:12.687Z,6.00
2022-08-23T01:02:12.769Z,6.70
2022-08-23T01:03:12.656Z,8.10
2022-08-23T01:04:12.663Z,7.00
2022-08-23T01:05:12.638Z,5.60
2022-08-23T01:06:12.626Z,5.00
2022-08-23T01:07:12.627Z,5.30
2022-08-23T01:08:12.597Z,4.50
2022-08-23T01:09:12.594Z,5.50
2022-08-23T01:10:13.266Z,5.30
2022-08-23T01:11:13.557Z,6.20
2022-08-23T01:12:12.557Z,5.00
2022-08-23T01:13:12.535Z,4.90
2022-08-23T01:14:12.527Z,3.50
2022-08-23T01:15:12.502Z,5.60
2022-08-23T01:16:12.504Z,6.90
2022-08-23T01:17:12.482Z,5.50
2022-08-23T01:18:12.466Z,7.40
2022-08-23T01:19:12.456Z,5.90
2022-08-23T01:20:12.437Z,5.60
2022-08-23T01:21:12.414Z,6.60
2022-08-23T01:22:12.410Z,6.20
2022-08-23T01:23:12.394Z,5.90
2022-08-23T01:24:19.172Z,5.30
2022-08-23T01:25:13.375Z,5.40
2022-08-23T01:26:12.358Z,6.30
2022-08-23T01:27:12.350Z,7.60
2022-08-23T01:28:12.336Z,6.00
2022-08-23T01:29:12.318Z,6.20
2022-08-23T01:30:12.303Z,6.60
2022-08-23T01:31:12.297Z,5.90
2022-08-23T01:32:12.267Z,6.40
2022-08-23T01:33:12.268Z,5.10
2022-08-23T01:34:12.256Z,4.60
2022-08-23T01:35:12.278Z,6.80
2022-08-23T01:36:12.215Z,4.60
2022-08-23T01:37:12.220Z,5.70
2022-08-23T01:38:12.188Z,5.00
2022-08-23T01:39:12.194Z,6.10
2022-08-23T01:40:12.214Z,5.40
2022-08-23T01:41:12.155Z,7.20
2022-08-23T01:42:12.137Z,5.00
2022-08-23T01:43:12.126Z,5.70
2022-08-23T01:44:12.124Z,5.10
2022-08-23T01:45:12.095Z,5.20
2022-08-23T01:46:12.075Z,5.80
2022-08-23T01:47:12.076Z,4.40
2022-08-23T01:48:12.057Z,7.00
2022-08-23T01:49:12.064Z,4.30
2022-08-23T01:50:12.025Z,4.80
2022-08-23T01:51:12.016Z,5.30
2022-08-23T01:52:12.015Z,6.30
2022-08-23T01:53:11.988Z,4.00
2022-08-23T01:54:11.995Z,5.90
2022-08-23T01:55:11.966Z,5.00
2022-08-23T01:56:11.947Z,4.80
2022-08-23T01:57:11.945Z,5.80
2022-08-23T01:58:11.914Z,5.10
2022-08-23T01:59:11.924Z,3.80
2022-08-23T02:00:11.894Z,5.40
2022-08-23T02:01:11.911Z,3.80
2022-08-23T02:02:11.875Z,3.90
2022-08-23T02:03:11.863Z,4.90
2022-08-23T02:04:11.854Z,6.30
2022-08-23T02:05:11.835Z,4.80
2022-08-23T02:06:11.833Z,3.90
2022-08-23T02:07:11.794Z,6.10
2022-08-23T02:08:11.795Z,6.00
2022-08-23T02:09:17.736Z,6.00
2022-08-23T02:10:12.761Z,5.90
2022-08-23T02:11:12.686Z,6.50
2022-08-23T02:12:11.744Z,5.70
2022-08-23T02:13:11.725Z,6.80
2022-08-23T02:14:11.725Z,5.10
2022-08-23T02:15:11.694Z,5.60
2022-08-23T02:16:11.685Z,6.10
2022-08-23T02:17:11.664Z,4.20
2022-08-23T02:18:11.667Z,7.80
2022-08-23T02:19:11.655Z,4.90
2022-08-23T02:20:11.624Z,6.30
2022-08-23T02:21:11.638Z,3.70
2022-08-23T02:22:11.598Z,6.10
2022-08-23T02:23:11.606Z,4.90
2022-08-23T02:24:11.577Z,6.30
2022-08-23T02:25:11.568Z,6.40
2022-08-23T02:26:11.550Z,6.10
2022-08-23T02:27:11.536Z,5.70
2022-08-23T02:28:11.527Z,6.00
2022-08-23T02:29:11.506Z,4.90
2022-08-23T02:30:11.508Z,4.20
2022-08-23T02:31:11.493Z,4.20
2022-08-23T02:32:11.846Z,4.10
2022-08-23T02:33:11.469Z,5.80
2022-08-23T02:34:39.162Z,6.80
2022-08-23T02:35:11.464Z,6.10
2022-08-23T02:36:11.485Z,5.40
2022-08-23T02:37:11.434Z,6.60
2022-08-23T02:38:11.474Z,6.00
2022-08-23T02:39:11.406Z,6.00
2022-08-23T02:40:11.509Z,5.00
2022-08-23T02:41:11.382Z,6.90
2022-08-23T02:42:11.925Z,8.00
2022-08-23T02:43:11.359Z,8.40
2022-08-23T02:44:11.344Z,9.40
2022-08-23T02:45:11.324Z,9.20
2022-08-23T02:46:11.313Z,7.80
2022-08-23T02:47:11.318Z,4.40
2022-08-23T02:48:11.310Z,6.80
2022-08-23T02:49:11.273Z,5.00
2022-08-23T02:50:11.269Z,4.90
2022-08-23T02:51:11.242Z,6.00
2022-08-23T02:52:11.245Z,5.00
2022-08-23T02:53:11.238Z,6.50
2022-08-23T02:54:11.214Z,4.40
2022-08-23T02:55:11.192Z,4.40
2022-08-23T02:56:17.108Z,3.90
2022-08-23T02:57:12.165Z,4.80
2022-08-23T02:58:11.173Z,4.70
2022-08-23T02:59:11.150Z,6.10
2022-08-23T03:00:11.124Z,6.60
2022-08-23T03:01:11.190Z,5.90
2022-08-23T03:02:11.142Z,4.50
2022-08-23T03:03:11.112Z,4.50
2022-08-23T03:04:11.088Z,4.70
2022-08-23T03:05:11.056Z,5.80
2022-08-23T03:06:25.264Z,4.90
2022-08-23T03:07:12.033Z,6.80
2022-08-23T03:08:11.039Z,6.00
2022-08-23T03:09:11.008Z,5.30
2022-08-23T03:10:10.996Z,4.70
2022-08-23T03:11:10.983Z,6.50
2022-08-23T03:12:10.969Z,7.80
2022-08-23T03:13:10.970Z,6.60
2022-08-23T03:14:10.942Z,7.70
2022-08-23T03:15:10.927Z,7.50
2022-08-23T03:16:10.926Z,6.50
2022-08-23T03:17:10.911Z,4.40
2022-08-23T03:18:10.899Z,6.00
2022-08-23T03:19:10.879Z,8.80
2022-08-23T03:20:10.861Z,6.80
2022-08-23T03:21:10.853Z,5.40
2022-08-23T03:22:10.867Z,5.70
2022-08-23T03:23:10.821Z,4.40
2022-08-23T03:24:10.809Z,7.80
2022-08-23T03:25:10.807Z,10.50
2022-08-23T03:26:10.811Z,6.80
2022-08-23T03:27:10.780Z,6.00
2022-08-23T03:28:10.762Z,10.10
2022-08-23T03:29:10.741Z,10.40
2022-08-23T03:30:19.109Z,6.30
2022-08-23T03:31:11.703Z,6.10
2022-08-23T03:32:10.687Z,9.80
2022-08-23T03:33:10.655Z,8.70
2022-08-23T03:34:10.644Z,12.00
2022-08-23T03:35:11.057Z,8.90
2022-08-23T03:36:10.629Z,7.20
2022-08-23T03:37:10.687Z,10.10
2022-08-23T03:38:10.594Z,11.50
2022-08-23T03:39:10.584Z,8.20
2022-08-23T03:40:10.655Z,6.50
2022-08-23T03:41:10.557Z,9.30
2022-08-23T03:42:10.571Z,7.90
2022-08-23T03:43:10.530Z,6.40
2022-08-23T03:44:10.516Z,5.00
2022-08-23T03:45:10.494Z,7.90
2022-08-23T03:46:10.494Z,5.60
2022-08-23T03:47:10.483Z,6.00
2022-08-23T03:48:10.484Z,5.80
2022-08-23T03:49:10.449Z,6.70
2022-08-23T03:50:10.437Z,6.00
2022-08-23T03:51:10.425Z,6.70
2022-08-23T03:52:10.425Z,7.50
2022-08-23T03:53:12.159Z,14.80
2022-08-23T03:54:10.377Z,12.10
2022-08-23T03:55:10.365Z,10.60
2022-08-23T03:56:10.356Z,14.00
2022-08-23T03:57:10.357Z,14.20
2022-08-23T03:58:10.338Z,19.00
2022-08-23T03:59:10.305Z,14.90
2022-08-23T04:00:10.308Z,10.10
2022-08-23T04:01:10.287Z,16.10
2022-08-23T04:02:10.354Z,17.90
2022-08-23T04:03:10.258Z,10.60
2022-08-23T04:04:10.257Z,7.60
2022-08-23T04:05:10.231Z,10.20
2022-08-23T04:06:10.239Z,8.30
2022-08-23T04:07:10.217Z,9.80
2022-08-23T04:08:10.207Z,7.10
2022-08-23T04:09:10.174Z,8.20
2022-08-23T04:10:10.164Z,8.70
2022-08-23T04:11:10.170Z,8.00
2022-08-23T04:12:17.302Z,7.60
2022-08-23T04:13:11.136Z,8.50
2022-08-23T04:14:10.129Z,11.50
2022-08-23T04:15:10.094Z,7.80
2022-08-23T04:16:10.095Z,8.20
2022-08-23T04:17:10.086Z,6.50
2022-08-23T04:18:10.064Z,4.90
2022-08-23T04:19:10.058Z,5.80
2022-08-23T04:20:10.049Z,5.30
2022-08-23T04:21:10.038Z,5.90
2022-08-23T04:22:10.049Z,7.20
2022-08-23T04:23:09.993Z,10.10
2022-08-23T04:24:10.007Z,13.50
2022-08-23T04:25:16.294Z,7.00
2022-08-23T04:26:10.974Z,6.30
2022-08-23T04:27:09.944Z,10.10
2022-08-23T04:28:09.945Z,10.60
2022-08-23T04:29:09.921Z,14.40
2022-08-23T04:30:09.907Z,7.00
2022-08-23T04:31:09.908Z,10.50
2022-08-23T04:32:11.661Z,7.40
2022-08-23T04:33:09.964Z,7.30
2022-08-23T04:34:09.859Z,8.90
2022-08-23T04:35:09.834Z,17.60
2022-08-23T04:36:09.849Z,19.40
2022-08-23T04:37:09.814Z,15.30
2022-08-23T04:38:24.518Z,15.00
2022-08-23T04:39:10.785Z,11.90
2022-08-23T04:40:09.861Z,7.30
2022-08-23T04:41:11.392Z,8.30
2022-08-23T04:42:14.300Z,10.30
2022-08-23T04:43:10.724Z,10.60
2022-08-23T04:44:09.725Z,14.10
2022-08-23T04:45:09.705Z,14.90
2022-08-23T04:46:09.708Z,19.10
2022-08-23T04:47:09.675Z,17.60
2022-08-23T04:48:10.962Z,19.90
2022-08-23T04:49:09.722Z,24.20
2022-08-23T04:50:09.650Z,13.80
2022-08-23T04:51:09.673Z,14.00
2022-08-23T04:52:09.613Z,12.00
2022-08-23T04:53:09.594Z,14.10
2022-08-23T04:54:09.587Z,10.70
2022-08-23T04:55:09.566Z,15.80
2022-08-23T04:56:09.580Z,24.70
2022-08-23T04:57:09.544Z,15.50
2022-08-23T04:58:09.537Z,12.40
2022-08-23T04:59:09.515Z,11.30
2022-08-23T05:00:09.504Z,13.70
2022-08-23T05:01:09.533Z,23.60
2022-08-23T05:02:09.475Z,26.80
2022-08-23T05:03:09.466Z,15.30
2022-08-23T05:04:09.462Z,13.20
2022-08-23T05:05:09.424Z,17.00
2022-08-23T05:06:09.434Z,23.60
2022-08-23T05:07:09.404Z,53.60
2022-08-23T05:08:09.406Z,102.00
2022-08-23T05:09:09.385Z,83.30
2022-08-23T05:10:09.385Z,57.20
2022-08-23T05:11:09.447Z,51.50
2022-08-23T05:12:09.351Z,41.20
2022-08-23T05:13:09.326Z,35.10
2022-08-23T05:14:09.312Z,27.70
2022-08-23T05:15:09.314Z,19.60
2022-08-23T05:16:09.303Z,14.00
2022-08-23T05:17:09.299Z,14.10
2022-08-23T05:18:09.276Z,14.20
2022-08-23T05:19:09.265Z,14.90
2022-08-23T05:20:09.237Z,12.10
2022-08-23T05:21:09.244Z,10.90
2022-08-23T05:22:09.211Z,12.90
2022-08-23T05:23:09.192Z,15.00
2022-08-23T05:24:09.195Z,19.60
2022-08-23T05:25:09.176Z,16.10
2022-08-23T05:26:09.166Z,15.70
2022-08-23T05:27:13.381Z,10.90
2022-08-23T05:28:09.123Z,12.60
2022-08-23T05:29:09.121Z,13.30
2022-08-23T05:30:09.103Z,12.00
2022-08-23T05:31:11.522Z,14.50
2022-08-23T05:32:09.102Z,13.50
2022-08-23T05:33:09.062Z,9.40
2022-08-23T05:34:09.066Z,12.40
2022-08-23T05:35:09.033Z,11.70
2022-08-23T05:36:09.044Z,14.20
2022-08-23T05:37:09.001Z,10.60
2022-08-23T05:38:09.012Z,11.20
2022-08-23T05:39:08.993Z,13.80
2022-08-23T05:40:09.031Z,12.70
2022-08-23T05:41:08.967Z,14.40
2022-08-23T05:42:08.944Z,15.40
2022-08-23T05:43:08.921Z,13.80
2022-08-23T05:44:08.912Z,16.80
2022-08-23T05:45:08.902Z,9.70
2022-08-23T05:46:12.192Z,9.80
2022-08-23T05:47:11.141Z,17.60
2022-08-23T05:48:08.867Z,14.80
2022-08-23T05:49:08.852Z,17.60
2022-08-23T05:50:08.842Z,17.40
2022-08-23T05:51:08.831Z,17.30
2022-08-23T05:52:08.800Z,20.30
2022-08-23T05:53:08.792Z,19.90
2022-08-23T05:54:08.770Z,19.60
2022-08-23T05:55:08.780Z,19.60
2022-08-23T05:56:08.751Z,16.30
2022-08-23T05:57:08.730Z,15.40
2022-08-23T05:58:08.721Z,18.90
2022-08-23T05:59:12.486Z,16.50
2022-08-23T06:00:08.701Z,23.10
2022-08-23T06:01:08.720Z,29.50
2022-08-23T06:02:08.673Z,18.90
2022-08-23T06:03:08.658Z,17.50
2022-08-23T06:04:08.645Z,19.40
2022-08-23T06:05:08.644Z,20.40
2022-08-23T06:06:08.631Z,18.20
2022-08-23T06:07:08.602Z,19.80
2022-08-23T06:08:08.588Z,16.30
2022-08-23T06:09:08.581Z,14.90
2022-08-23T06:10:08.570Z,15.20
2022-08-23T06:11:09.552Z,14.60
2022-08-23T06:12:08.531Z,15.40
2022-08-23T06:13:08.521Z,13.10
2022-08-23T06:14:08.534Z,17.10
2022-08-23T06:15:08.514Z,19.40
2022-08-23T06:16:14.911Z,18.40
2022-08-23T06:17:09.470Z,15.20
2022-08-23T06:18:08.445Z,20.60
2022-08-23T06:19:08.452Z,21.80
2022-08-23T06:20:08.444Z,22.70
2022-08-23T06:21:08.426Z,18.40
2022-08-23T06:22:08.394Z,17.50
2022-08-23T06:23:08.394Z,21.60
2022-08-23T06:24:08.372Z,17.30
2022-08-23T06:25:09.744Z,20.90
2022-08-23T06:26:08.342Z,19.60
2022-08-23T06:27:08.330Z,24.60
2022-08-23T06:28:08.312Z,22.20
2022-08-23T06:29:08.360Z,22.70
2022-08-23T06:30:08.284Z,18.70
2022-08-23T06:31:09.327Z,21.60
2022-08-23T06:32:08.324Z,20.60
2022-08-23T06:33:08.260Z,20.90
2022-08-23T06:34:08.298Z,22.30
2022-08-23T06:35:18.137Z,17.90
2022-08-23T06:36:09.209Z,21.20
2022-08-23T06:37:08.192Z,14.90
2022-08-23T06:38:08.182Z,17.50
2022-08-23T06:39:08.197Z,19.20
2022-08-23T06:40:08.179Z,16.10
2022-08-23T06:41:08.150Z,23.10
2022-08-23T06:42:34.542Z,21.50
2022-08-23T06:43:09.120Z,15.50
2022-08-23T06:44:08.122Z,18.20
2022-08-23T06:45:08.101Z,16.40
2022-08-23T06:46:08.078Z,14.90
2022-08-23T06:47:08.065Z,16.10
2022-08-23T06:48:08.042Z,16.00
2022-08-23T06:49:08.051Z,17.40
2022-08-23T06:50:08.020Z,22.20
2022-08-23T06:51:08.012Z,17.90
2022-08-23T06:52:07.992Z,21.00
2022-08-23T06:53:10.063Z,17.30
2022-08-23T06:54:07.979Z,22.20
2022-08-23T06:55:13.108Z,23.90
2022-08-23T06:56:08.945Z,18.50
2022-08-23T06:57:07.934Z,22.00
2022-08-23T06:58:07.911Z,24.40
2022-08-23T06:59:07.920Z,16.70
2022-08-23T07:00:07.905Z,18.60
2022-08-23T07:01:14.641Z,17.60
2022-08-23T07:02:08.981Z,17.50
2022-08-23T07:03:07.870Z,17.50
2022-08-23T07:04:07.853Z,26.80
2022-08-23T07:05:07.830Z,20.80
2022-08-23T07:06:07.810Z,29.50
2022-08-23T07:07:11.380Z,19.00
2022-08-23T07:08:07.789Z,19.60
2022-08-23T07:09:07.923Z,21.30
2022-08-23T07:10:07.755Z,17.60
2022-08-23T07:11:07.748Z,21.30
2022-08-23T07:12:07.728Z,23.40
2022-08-23T07:13:07.720Z,14.80
2022-08-23T07:14:07.724Z,21.80
2022-08-23T07:15:07.699Z,19.00
2022-08-23T07:16:07.720Z,16.70
2022-08-23T07:17:07.672Z,20.10
2022-08-23T07:18:07.652Z,19.90
2022-08-23T07:19:08.653Z,16.90
2022-08-23T07:20:07.622Z,18.90
2022-08-23T07:21:07.620Z,18.60
2022-08-23T07:22:07.616Z,21.00
2022-08-23T07:23:07.594Z,20.10
2022-08-23T07:24:07.580Z,16.90
2022-08-23T07:25:07.561Z,13.80
2022-08-23T07:26:07.539Z,18.50
2022-08-23T07:27:07.542Z,18.60
2022-08-23T07:28:11.513Z,17.10
2022-08-23T07:29:07.521Z,18.40
2022-08-23T07:30:07.484Z,16.60
2022-08-23T07:31:12.346Z,19.70
2022-08-23T07:32:08.486Z,19.70
2022-08-23T07:33:07.451Z,15.90
2022-08-23T07:34:07.465Z,16.60
2022-08-23T07:35:07.440Z,19.00
2022-08-23T07:36:07.402Z,21.90
2022-08-23T07:37:11.556Z,16.30
2022-08-23T07:38:08.397Z,16.30
2022-08-23T07:39:07.379Z,14.30
2022-08-23T07:40:20.574Z,16.30
2022-08-23T07:41:07.346Z,14.90
2022-08-23T07:42:23.041Z,12.60
2022-08-23T07:43:08.327Z,14.30
2022-08-23T07:44:07.308Z,16.30
2022-08-23T07:45:07.457Z,12.40
2022-08-23T07:46:07.338Z,10.00
2022-08-23T07:47:07.273Z,12.70
2022-08-23T07:48:07.341Z,15.00
2022-08-23T07:49:07.246Z,16.00
2022-08-23T07:50:07.229Z,13.50
2022-08-23T07:51:07.212Z,17.00
2022-08-23T07:52:07.184Z,15.10
2022-08-23T07:53:07.198Z,12.40
2022-08-23T07:54:07.177Z,14.70
2022-08-23T07:55:07.176Z,14.20
2022-08-23T07:56:07.138Z,13.80
2022-08-23T07:57:07.139Z,13.30
2022-08-23T07:58:07.135Z,17.70
2022-08-23T07:59:07.094Z,15.50
2022-08-23T08:00:07.084Z,17.60
2022-08-23T08:01:07.065Z,15.20
2022-08-23T08:02:07.120Z,15.90
2022-08-23T08:03:07.134Z,17.00
2022-08-23T08:04:07.024Z,18.90
2022-08-23T08:05:07.026Z,13.90
2022-08-23T08:06:07.004Z,16.10
2022-08-23T08:07:22.340Z,12.70
2022-08-23T08:08:07.995Z,17.80
2022-08-23T08:09:06.968Z,11.40
2022-08-23T08:10:06.966Z,13.00
2022-08-23T08:11:06.950Z,11.80
2022-08-23T08:12:06.926Z,12.00
2022-08-23T08:13:06.926Z,11.90
2022-08-23T08:14:06.920Z,11.00
2022-08-23T08:15:06.900Z,13.10
2022-08-23T08:16:06.937Z,9.90
2022-08-23T08:17:06.876Z,11.40
2022-08-23T08:18:06.862Z,11.50
2022-08-23T08:19:07.769Z,10.10
2022-08-23T08:20:06.817Z,8.80
2022-08-23T08:21:06.810Z,9.30
2022-08-23T08:22:06.794Z,9.30
2022-08-23T08:23:06.793Z,9.40
2022-08-23T08:24:06.756Z,11.70
2022-08-23T08:25:06.756Z,10.70
2022-08-23T08:26:06.736Z,10.60
2022-08-23T08:27:07.909Z,10.50
2022-08-23T08:28:07.905Z,9.00
2022-08-23T08:29:06.695Z,10.70
2022-08-23T08:30:06.693Z,6.90
2022-08-23T08:31:06.699Z,9.70
2022-08-23T08:32:06.653Z,10.80
2022-08-23T08:33:07.667Z,11.90
2022-08-23T08:34:06.649Z,13.20
2022-08-23T08:35:06.627Z,9.70
2022-08-23T08:36:06.598Z,11.70
2022-08-23T08:37:06.587Z,9.50
2022-08-23T08:38:06.583Z,11.20
2022-08-23T08:39:06.608Z,9.00
2022-08-23T08:40:06.584Z,8.30
2022-08-23T08:41:06.535Z,11.30
2022-08-23T08:42:06.536Z,10.20
2022-08-23T08:43:06.513Z,7.70
2022-08-23T08:44:06.501Z,7.60
2022-08-23T08:45:06.494Z,10.90
2022-08-23T08:46:06.533Z,8.30
2022-08-23T08:47:06.471Z,8.70
2022-08-23T08:48:10.130Z,10.30
2022-08-23T08:49:07.431Z,10.60
2022-08-23T08:50:06.424Z,10.30
2022-08-23T08:51:06.407Z,8.60
2022-08-23T08:52:06.406Z,10.30
2022-08-23T08:53:06.376Z,10.20
2022-08-23T08:54:06.376Z,9.60
2022-08-23T08:55:06.359Z,10.70
2022-08-23T08:56:06.339Z,9.90
2022-08-23T08:57:06.345Z,10.80
2022-08-23T08:58:06.316Z,8.00
2022-08-23T08:59:06.304Z,11.10
2022-08-23T09:00:06.286Z,8.70
2022-08-23T09:01:06.275Z,12.60
2022-08-23T09:02:06.339Z,10.00
2022-08-23T09:03:07.321Z,10.20
2022-08-23T09:04:06.234Z,8.50
2022-08-23T09:05:06.228Z,10.60
2022-08-23T09:06:06.206Z,9.40
2022-08-23T09:07:06.206Z,11.80
2022-08-23T09:08:06.181Z,9.70
2022-08-23T09:09:06.168Z,10.80
2022-08-23T09:10:06.155Z,8.30
2022-08-23T09:11:06.571Z,6.90
2022-08-23T09:12:06.138Z,10.40
2022-08-23T09:13:06.120Z,8.20
2022-08-23T09:14:06.097Z,9.40
2022-08-23T09:15:06.098Z,7.00
2022-08-23T09:16:06.133Z,7.20
2022-08-23T09:17:06.075Z,6.80
2022-08-23T09:18:06.048Z,8.50
2022-08-23T09:19:06.038Z,7.40
2022-08-23T09:20:06.019Z,8.20
2022-08-23T09:21:06.006Z,6.40
2022-08-23T09:22:06.010Z,9.10
2022-08-23T09:23:05.985Z,7.00
2022-08-23T09:24:05.967Z,7.80
2022-08-23T09:25:06.293Z,8.30
2022-08-23T09:26:05.937Z,7.70
2022-08-23T09:27:05.947Z,8.00
2022-08-23T09:28:05.907Z,7.30
2022-08-23T09:29:05.897Z,7.10
2022-08-23T09:30:05.890Z,8.10
2022-08-23T09:31:08.404Z,9.60
2022-08-23T09:32:05.926Z,9.70
2022-08-23T09:33:05.852Z,7.80
2022-08-23T09:34:05.837Z,6.20
2022-08-23T09:35:06.225Z,6.40
2022-08-23T09:36:05.809Z,9.40
2022-08-23T09:37:05.808Z,6.60
2022-08-23T09:38:05.789Z,7.00
2022-08-23T09:39:05.767Z,8.20
2022-08-23T09:40:05.791Z,6.90
2022-08-23T09:41:05.739Z,6.50
2022-08-23T09:42:05.738Z,6.80
2022-08-23T09:43:05.715Z,7.60
2022-08-23T09:44:05.689Z,6.60
2022-08-23T09:45:05.690Z,7.10
2022-08-23T09:46:05.697Z,6.00
2022-08-23T09:47:05.668Z,7.90
2022-08-23T09:48:05.639Z,7.70
2022-08-23T09:49:05.639Z,8.50
2022-08-23T09:50:05.628Z,5.50
2022-08-23T09:51:05.622Z,6.20
2022-08-23T09:52:05.592Z,7.50
2022-08-23T09:53:05.775Z,7.40
2022-08-23T09:54:05.570Z,6.30
2022-08-23T09:55:05.558Z,7.30
2022-08-23T09:56:05.571Z,7.40
2022-08-23T09:57:05.532Z,7.60
2022-08-23T09:58:05.511Z,5.70
2022-08-23T09:59:05.507Z,7.40
2022-08-23T10:00:05.504Z,8.70
2022-08-23T10:01:05.590Z,5.00
2022-08-23T10:02:05.541Z,6.20
2022-08-23T10:03:05.453Z,5.50
2022-08-23T10:04:05.444Z,5.60
2022-08-23T10:05:05.486Z,4.90
2022-08-23T10:06:05.425Z,6.30
2022-08-23T10:07:05.392Z,7.80
2022-08-23T10:08:10.146Z,6.60
2022-08-23T10:09:06.381Z,4.80
2022-08-23T10:10:05.361Z,6.40
2022-08-23T10:11:05.353Z,5.80
2022-08-23T10:13:03.726Z,6.30
2022-08-23T10:14:03.386Z,6.60
2022-08-23T10:15:03.375Z,5.80
2022-08-23T10:16:03.418Z,5.40
2022-08-23T10:17:03.359Z,6.80
2022-08-23T10:18:03.739Z,4.80
2022-08-23T10:19:03.328Z,6.90
2022-08-23T10:20:03.305Z,6.40
2022-08-23T10:21:03.326Z,4.70
2022-08-23T10:22:03.278Z,7.20
2022-08-23T10:23:03.275Z,5.70
2022-08-23T10:24:03.267Z,5.80
2022-08-23T10:25:05.699Z,5.60
2022-08-23T10:26:03.250Z,4.90
2022-08-23T10:27:03.245Z,4.70
2022-08-23T10:28:03.273Z,5.60
2022-08-23T10:29:03.189Z,4.80
2022-08-23T10:30:03.215Z,5.00
2022-08-23T10:31:03.266Z,5.20
2022-08-23T10:32:03.157Z,5.30
2022-08-23T10:33:03.149Z,5.90
2022-08-23T10:34:03.179Z,5.30
2022-08-23T10:35:03.132Z,5.00
2022-08-23T10:36:03.119Z,5.00
2022-08-23T10:37:03.112Z,4.20
2022-08-23T10:38:03.281Z,6.90
2022-08-23T10:39:03.081Z,6.30
2022-08-23T10:40:04.284Z,4.80
2022-08-23T10:41:03.070Z,6.90
2022-08-23T10:42:03.020Z,5.00
2022-08-23T10:43:07.853Z,4.50
2022-08-23T10:44:03.003Z,5.60
2022-08-23T10:45:02.994Z,5.50
2022-08-23T10:46:03.033Z,8.00
2022-08-23T10:47:02.959Z,6.80
2022-08-23T10:48:03.128Z,4.60
2022-08-23T10:49:02.942Z,3.80
2022-08-23T10:50:02.930Z,4.60
2022-08-23T10:51:02.922Z,4.40
2022-08-23T10:52:02.905Z,7.80
2022-08-23T10:53:02.881Z,3.80
2022-08-23T10:54:02.890Z,4.20
2022-08-23T10:55:02.862Z,4.70
2022-08-23T10:56:02.871Z,6.30
2022-08-23T10:57:02.832Z,4.80
2022-08-23T10:58:03.017Z,5.00
2022-08-23T10:59:02.809Z,4.10
2022-08-23T11:00:02.837Z,4.60
2022-08-23T11:01:02.963Z,4.80
2022-08-23T11:02:02.766Z,4.80
2022-08-23T11:03:02.812Z,5.10
2022-08-23T11:04:02.734Z,5.20
2022-08-23T11:05:02.745Z,4.40
2022-08-23T11:06:02.731Z,3.90
2022-08-23T11:07:02.712Z,5.50
2022-08-23T11:08:02.947Z,5.00
2022-08-23T11:09:02.678Z,5.70
2022-08-23T11:10:02.674Z,4.30
2022-08-23T11:11:02.664Z,3.80
2022-08-23T11:12:02.633Z,5.20
2022-08-23T11:13:02.630Z,5.90
2022-08-23T11:14:04.207Z,4.20
2022-08-23T11:15:02.614Z,6.30
2022-08-23T11:16:02.661Z,3.20
2022-08-23T11:17:02.583Z,3.30
2022-08-23T11:18:02.805Z,5.90
2022-08-23T11:19:02.549Z,4.50
2022-08-23T11:20:02.543Z,4.60
2022-08-23T11:21:02.534Z,4.00
2022-08-23T11:22:02.509Z,3.90
2022-08-23T11:23:02.505Z,4.20
2022-08-23T11:24:02.505Z,4.50
2022-08-23T11:25:02.518Z,4.40
2022-08-23T11:26:02.468Z,4.20
2022-08-23T11:27:06.027Z,3.90
2022-08-23T11:28:02.702Z,4.20
2022-08-23T11:29:02.425Z,6.60
2022-08-23T11:30:02.434Z,4.60
2022-08-23T11:31:02.421Z,4.20
2022-08-23T11:32:02.388Z,4.20
2022-08-23T11:33:02.386Z,4.70
2022-08-23T11:34:02.349Z,5.00
2022-08-23T11:35:02.360Z,6.70
2022-08-23T11:36:02.338Z,4.10
2022-08-23T11:37:02.323Z,3.50
2022-08-23T11:38:04.940Z,4.00
2022-08-23T11:39:02.289Z,4.30
2022-08-23T11:40:02.334Z,6.10
2022-08-23T11:41:02.274Z,6.50
2022-08-23T11:42:02.290Z,3.50
2022-08-23T11:43:02.249Z,4.10
2022-08-23T11:44:02.219Z,4.70
2022-08-23T11:45:02.238Z,2.70
2022-08-23T11:46:02.217Z,5.40
2022-08-23T11:47:02.190Z,4.90
2022-08-23T11:48:02.501Z,6.00
2022-08-23T11:49:02.180Z,3.40
2022-08-23T11:50:02.169Z,5.30
2022-08-23T11:51:02.155Z,3.60
2022-08-23T11:52:02.137Z,6.50
2022-08-23T11:53:02.135Z,3.30
2022-08-23T11:54:02.101Z,4.90
2022-08-23T11:55:02.110Z,5.20
2022-08-23T11:56:02.106Z,4.80
2022-08-23T11:57:02.080Z,6.10
2022-08-23T11:58:02.251Z,4.80
2022-08-23T11:59:03.529Z,4.30
2022-08-23T12:00:03.043Z,4.20
2022-08-23T12:01:02.021Z,4.80
2022-08-23T12:02:02.012Z,4.80
2022-08-23T12:03:02.322Z,5.90
2022-08-23T12:04:02.188Z,4.90
2022-08-23T12:06:17.069Z,4.60
2022-08-23T12:07:17.048Z,5.10
2022-08-23T12:08:17.028Z,5.20
2022-08-23T12:09:17.038Z,3.80
2022-08-23T12:10:17.008Z,5.00
2022-08-23T12:11:16.998Z,4.20
2022-08-23T12:12:16.982Z,3.70
2022-08-23T12:13:16.971Z,4.10
2022-08-23T12:14:16.968Z,3.50
2022-08-23T12:15:16.959Z,4.70
2022-08-23T12:16:17.795Z,4.90
2022-08-23T12:17:16.971Z,5.00
2022-08-23T12:18:20.605Z,5.30
2022-08-23T12:19:17.909Z,6.10
2022-08-23T12:20:17.391Z,6.20
2022-08-23T12:21:16.884Z,7.20
2022-08-23T12:22:16.858Z,5.80
2022-08-23T12:23:16.849Z,6.90
2022-08-23T12:24:16.898Z,4.80
2022-08-23T12:25:16.826Z,6.80
2022-08-23T12:26:16.799Z,6.00
2022-08-23T12:27:16.830Z,6.10
2022-08-23T12:28:16.811Z,4.40
2022-08-23T12:29:16.788Z,4.40
2022-08-23T12:30:16.757Z,3.30
2022-08-23T12:31:18.855Z,5.10
2022-08-23T12:32:16.730Z,4.30
2022-08-23T12:33:16.721Z,5.60
2022-08-23T12:34:16.734Z,4.80
2022-08-23T12:35:16.700Z,5.00
2022-08-23T12:36:16.834Z,5.30
2022-08-23T12:37:16.690Z,3.40
2022-08-23T12:38:16.661Z,5.30
2022-08-23T12:39:16.672Z,5.80
2022-08-23T12:40:16.663Z,5.40
2022-08-23T12:41:16.633Z,6.20
2022-08-23T12:42:16.610Z,5.10
2022-08-23T12:43:16.759Z,4.50
2022-08-23T12:44:16.600Z,4.30
2022-08-23T12:45:16.573Z,5.50
2022-08-23T12:46:16.588Z,4.30
2022-08-23T12:47:16.546Z,5.30
2022-08-23T12:48:16.545Z,5.70
2022-08-23T12:49:16.537Z,3.00
2022-08-23T12:50:16.558Z,3.30
2022-08-23T12:51:17.204Z,4.40
2022-08-23T12:52:16.480Z,3.70
2022-08-23T12:53:16.466Z,3.80
2022-08-23T12:54:16.465Z,2.80
2022-08-23T12:55:16.439Z,4.50
2022-08-23T12:56:16.428Z,4.60
2022-08-23T12:57:16.417Z,4.10
2022-08-23T12:58:16.402Z,2.90
2022-08-23T12:59:16.404Z,5.00
2022-08-23T13:00:18.144Z,5.80
2022-08-23T13:01:16.416Z,3.80
2022-08-23T13:02:16.389Z,5.10
2022-08-23T13:03:16.365Z,3.00
2022-08-23T13:04:16.366Z,2.90
2022-08-23T13:05:16.324Z,3.20
2022-08-23T13:06:16.304Z,4.90
2022-08-23T13:07:16.295Z,4.20
2022-08-23T13:08:16.266Z,4.10
2022-08-23T13:09:16.276Z,3.50
2022-08-23T13:10:16.266Z,4.40
2022-08-23T13:11:16.244Z,5.60